sensor_id;sensor_type;location;lat;lon;timestamp;P1;durP1;ratioP1;P2;durP2;ratioP2
14837;SDS011;7510;59.296;18.106;2022-10-22T00:00:53;5.13;;;3.70;;
14837;SDS011;7510;59.296;18.106;2022-10-22T00:03:19;4.03;;;2.70;;
14837;SDS011;7510;59.296;18.106;2022-10-22T00:05:46;4.27;;;3.13;;
14837;SDS011;7510;59.296;18.106;2022-10-22T00:08:11;3.87;;;2.83;;
14837;SDS011;7510;59.296;18.106;2022-10-22T00:10:38;5.47;;;3.00;;
14837;SDS011;7510;59.296;18.106;2022-10-22T00:13:05;5.57;;;3.50;;
14837;SDS011;7510;59.296;18.106;2022-10-22T00:15:34;4.13;;;2.60;;
14837;SDS011;7510;59.296;18.106;2022-10-22T00:18:00;4.23;;;2.50;;
14837;SDS011;7510;59.296;18.106;2022-10-22T00:20:25;5.50;;;2.93;;
14837;SDS011;7510;59.296;18.106;2022-10-22T00:22:51;2.73;;;2.40;;
14837;SDS011;7510;59.296;18.106;2022-10-22T00:25:17;5.33;;;3.43;;
14837;SDS011;7510;59.296;18.106;2022-10-22T00:27:42;4.23;;;2.20;;
14837;SDS011;7510;59.296;18.106;2022-10-22T00:30:08;4.50;;;2.40;;
14837;SDS011;7510;59.296;18.106;2022-10-22T00:32:34;3.77;;;2.20;;
14837;SDS011;7510;59.296;18.106;2022-10-22T00:34:59;6.13;;;3.87;;
14837;SDS011;7510;59.296;18.106;2022-10-22T00:37:24;2.67;;;2.00;;
14837;SDS011;7510;59.296;18.106;2022-10-22T00:39:50;4.87;;;3.20;;
14837;SDS011;7510;59.296;18.106;2022-10-22T00:42:17;4.67;;;2.90;;
14837;SDS011;7510;59.296;18.106;2022-10-22T00:50:32;4.70;;;3.20;;
14837;SDS011;7510;59.296;18.106;2022-10-22T00:53:38;5.07;;;3.20;;
14837;SDS011;7510;59.296;18.106;2022-10-22T00:56:11;3.80;;;2.73;;
14837;SDS011;7510;59.296;18.106;2022-10-22T00:58:38;4.80;;;3.57;;
14837;SDS011;7510;59.296;18.106;2022-10-22T01:01:12;4.47;;;3.60;;
14837;SDS011;7510;59.296;18.106;2022-10-22T01:03:42;3.33;;;2.97;;
14837;SDS011;7510;59.296;18.106;2022-10-22T01:06:08;5.93;;;2.77;;
14837;SDS011;7510;59.296;18.106;2022-10-22T01:16:41;4.47;;;3.07;;
14837;SDS011;7510;59.296;18.106;2022-10-22T01:22:08;5.40;;;3.37;;
14837;SDS011;7510;59.296;18.106;2022-10-22T01:30:35;6.67;;;2.93;;
14837;SDS011;7510;59.296;18.106;2022-10-22T01:33:03;3.97;;;3.10;;
14837;SDS011;7510;59.296;18.106;2022-10-22T01:35:33;4.87;;;3.20;;
14837;SDS011;7510;59.296;18.106;2022-10-22T01:38:03;5.27;;;3.33;;
14837;SDS011;7510;59.296;18.106;2022-10-22T01:40:33;3.37;;;2.60;;
14837;SDS011;7510;59.296;18.106;2022-10-22T01:43:01;2.97;;;2.40;;
14837;SDS011;7510;59.296;18.106;2022-10-22T01:45:44;5.33;;;2.80;;
14837;SDS011;7510;59.296;18.106;2022-10-22T01:53:42;6.10;;;3.17;;
14837;SDS011;7510;59.296;18.106;2022-10-22T02:07:09;5.63;;;3.20;;
14837;SDS011;7510;59.296;18.106;2022-10-22T02:09:42;5.87;;;3.70;;
14837;SDS011;7510;59.296;18.106;2022-10-22T02:12:08;5.90;;;3.33;;
14837;SDS011;7510;59.296;18.106;2022-10-22T02:14:37;3.43;;;2.80;;
14837;SDS011;7510;59.296;18.106;2022-10-22T02:17:08;4.40;;;2.80;;
14837;SDS011;7510;59.296;18.106;2022-10-22T02:19:41;3.33;;;2.77;;
14837;SDS011;7510;59.296;18.106;2022-10-22T02:22:08;2.83;;;2.63;;
14837;SDS011;7510;59.296;18.106;2022-10-22T02:24:34;5.80;;;2.80;;
14837;SDS011;7510;59.296;18.106;2022-10-22T02:27:02;5.20;;;2.70;;
14837;SDS011;7510;59.296;18.106;2022-10-22T02:29:40;3.90;;;2.70;;
14837;SDS011;7510;59.296;18.106;2022-10-22T02:32:19;3.60;;;2.80;;
14837;SDS011;7510;59.296;18.106;2022-10-22T02:34:47;6.07;;;2.87;;
14837;SDS011;7510;59.296;18.106;2022-10-22T02:37:14;3.83;;;3.00;;
14837;SDS011;7510;59.296;18.106;2022-10-22T02:39:43;5.53;;;2.83;;
14837;SDS011;7510;59.296;18.106;2022-10-22T02:42:09;4.77;;;3.10;;
14837;SDS011;7510;59.296;18.106;2022-10-22T02:44:36;4.73;;;2.87;;
14837;SDS011;7510;59.296;18.106;2022-10-22T02:47:02;4.93;;;2.63;;
14837;SDS011;7510;59.296;18.106;2022-10-22T02:49:28;3.53;;;2.70;;
14837;SDS011;7510;59.296;18.106;2022-10-22T02:51:55;3.47;;;2.80;;
14837;SDS011;7510;59.296;18.106;2022-10-22T02:54:21;5.43;;;2.23;;
14837;SDS011;7510;59.296;18.106;2022-10-22T02:56:46;3.47;;;2.60;;
14837;SDS011;7510;59.296;18.106;2022-10-22T02:59:12;4.20;;;2.60;;
14837;SDS011;7510;59.296;18.106;2022-10-22T03:01:37;3.50;;;2.10;;
14837;SDS011;7510;59.296;18.106;2022-10-22T03:04:03;3.70;;;2.80;;
14837;SDS011;7510;59.296;18.106;2022-10-22T03:06:28;6.73;;;2.87;;
14837;SDS011;7510;59.296;18.106;2022-10-22T03:08:54;5.57;;;2.83;;
14837;SDS011;7510;59.296;18.106;2022-10-22T03:11:19;2.70;;;2.20;;
14837;SDS011;7510;59.296;18.106;2022-10-22T03:13:45;3.97;;;2.47;;
14837;SDS011;7510;59.296;18.106;2022-10-22T03:16:10;4.63;;;2.60;;
14837;SDS011;7510;59.296;18.106;2022-10-22T03:18:36;5.97;;;2.53;;
14837;SDS011;7510;59.296;18.106;2022-10-22T03:23:42;3.77;;;2.40;;
14837;SDS011;7510;59.296;18.106;2022-10-22T03:26:07;3.40;;;2.73;;
14837;SDS011;7510;59.296;18.106;2022-10-22T03:28:34;3.63;;;2.43;;
14837;SDS011;7510;59.296;18.106;2022-10-22T03:31:01;2.90;;;2.40;;
14837;SDS011;7510;59.296;18.106;2022-10-22T03:33:27;5.07;;;2.50;;
14837;SDS011;7510;59.296;18.106;2022-10-22T03:35:52;4.70;;;2.50;;
14837;SDS011;7510;59.296;18.106;2022-10-22T03:38:17;3.43;;;2.50;;
14837;SDS011;7510;59.296;18.106;2022-10-22T03:40:43;2.97;;;2.27;;
14837;SDS011;7510;59.296;18.106;2022-10-22T03:43:10;4.03;;;2.67;;
14837;SDS011;7510;59.296;18.106;2022-10-22T03:45:36;4.63;;;3.07;;
14837;SDS011;7510;59.296;18.106;2022-10-22T03:48:01;4.77;;;2.53;;
14837;SDS011;7510;59.296;18.106;2022-10-22T03:50:27;6.90;;;2.87;;
14837;SDS011;7510;59.296;18.106;2022-10-22T03:52:52;5.63;;;2.67;;
14837;SDS011;7510;59.296;18.106;2022-10-22T03:55:18;5.13;;;2.53;;
14837;SDS011;7510;59.296;18.106;2022-10-22T03:57:44;4.43;;;2.67;;
14837;SDS011;7510;59.296;18.106;2022-10-22T04:00:09;5.50;;;2.30;;
14837;SDS011;7510;59.296;18.106;2022-10-22T04:02:36;6.87;;;2.83;;
14837;SDS011;7510;59.296;18.106;2022-10-22T04:05:02;4.17;;;2.80;;
14837;SDS011;7510;59.296;18.106;2022-10-22T04:07:27;2.97;;;2.17;;
14837;SDS011;7510;59.296;18.106;2022-10-22T04:09:53;2.37;;;2.10;;
14837;SDS011;7510;59.296;18.106;2022-10-22T04:12:18;3.10;;;2.00;;
14837;SDS011;7510;59.296;18.106;2022-10-22T04:14:43;4.77;;;2.53;;
14837;SDS011;7510;59.296;18.106;2022-10-22T04:17:09;3.90;;;2.43;;
14837;SDS011;7510;59.296;18.106;2022-10-22T04:19:34;3.13;;;2.30;;
14837;SDS011;7510;59.296;18.106;2022-10-22T04:22:00;3.87;;;2.33;;
14837;SDS011;7510;59.296;18.106;2022-10-22T04:24:25;2.60;;;2.40;;
14837;SDS011;7510;59.296;18.106;2022-10-22T04:26:54;4.97;;;2.20;;
14837;SDS011;7510;59.296;18.106;2022-10-22T04:29:20;2.93;;;2.40;;
14837;SDS011;7510;59.296;18.106;2022-10-22T04:31:45;2.33;;;2.10;;
14837;SDS011;7510;59.296;18.106;2022-10-22T04:34:11;6.23;;;2.70;;
14837;SDS011;7510;59.296;18.106;2022-10-22T04:36:36;4.87;;;2.27;;
14837;SDS011;7510;59.296;18.106;2022-10-22T04:39:02;3.00;;;1.90;;
14837;SDS011;7510;59.296;18.106;2022-10-22T04:41:29;2.00;;;1.90;;
14837;SDS011;7510;59.296;18.106;2022-10-22T04:44:02;3.70;;;2.20;;
14837;SDS011;7510;59.296;18.106;2022-10-22T04:46:29;3.87;;;1.93;;
14837;SDS011;7510;59.296;18.106;2022-10-22T04:48:56;4.10;;;2.00;;
14837;SDS011;7510;59.296;18.106;2022-10-22T04:51:23;3.07;;;2.03;;
14837;SDS011;7510;59.296;18.106;2022-10-22T04:53:50;2.63;;;2.03;;
14837;SDS011;7510;59.296;18.106;2022-10-22T04:56:19;3.33;;;2.30;;
14837;SDS011;7510;59.296;18.106;2022-10-22T04:58:49;3.43;;;2.13;;
14837;SDS011;7510;59.296;18.106;2022-10-22T05:01:17;3.27;;;2.10;;
14837;SDS011;7510;59.296;18.106;2022-10-22T05:03:45;3.00;;;1.90;;
14837;SDS011;7510;59.296;18.106;2022-10-22T05:06:12;3.57;;;2.03;;
14837;SDS011;7510;59.296;18.106;2022-10-22T05:08:38;6.00;;;1.97;;
14837;SDS011;7510;59.296;18.106;2022-10-22T05:11:14;2.80;;;2.20;;
14837;SDS011;7510;59.296;18.106;2022-10-22T05:13:44;3.00;;;1.83;;
14837;SDS011;7510;59.296;18.106;2022-10-22T05:16:10;3.37;;;2.07;;
14837;SDS011;7510;59.296;18.106;2022-10-22T05:18:36;4.87;;;2.20;;
14837;SDS011;7510;59.296;18.106;2022-10-22T05:21:03;3.37;;;2.13;;
14837;SDS011;7510;59.296;18.106;2022-10-22T05:23:32;2.93;;;1.97;;
14837;SDS011;7510;59.296;18.106;2022-10-22T05:26:00;3.03;;;2.10;;
14837;SDS011;7510;59.296;18.106;2022-10-22T05:28:27;5.40;;;2.40;;
14837;SDS011;7510;59.296;18.106;2022-10-22T05:30:53;4.10;;;2.23;;
14837;SDS011;7510;59.296;18.106;2022-10-22T05:33:20;2.20;;;2.00;;
14837;SDS011;7510;59.296;18.106;2022-10-22T05:35:47;3.67;;;2.17;;
14837;SDS011;7510;59.296;18.106;2022-10-22T05:38:15;3.87;;;1.90;;
14837;SDS011;7510;59.296;18.106;2022-10-22T05:40:40;2.07;;;1.87;;
14837;SDS011;7510;59.296;18.106;2022-10-22T05:43:06;4.50;;;1.83;;
14837;SDS011;7510;59.296;18.106;2022-10-22T05:45:35;2.00;;;1.53;;
14837;SDS011;7510;59.296;18.106;2022-10-22T05:48:04;3.80;;;2.33;;
14837;SDS011;7510;59.296;18.106;2022-10-22T05:50:30;4.50;;;2.13;;
14837;SDS011;7510;59.296;18.106;2022-10-22T05:52:56;2.53;;;2.03;;
14837;SDS011;7510;59.296;18.106;2022-10-22T05:55:21;3.30;;;2.33;;
14837;SDS011;7510;59.296;18.106;2022-10-22T05:57:47;2.77;;;2.13;;
14837;SDS011;7510;59.296;18.106;2022-10-22T06:00:14;2.90;;;1.63;;
14837;SDS011;7510;59.296;18.106;2022-10-22T06:02:40;2.37;;;1.80;;
14837;SDS011;7510;59.296;18.106;2022-10-22T06:05:06;2.60;;;2.40;;
14837;SDS011;7510;59.296;18.106;2022-10-22T06:07:32;4.27;;;2.00;;
14837;SDS011;7510;59.296;18.106;2022-10-22T06:09:58;2.20;;;1.97;;
14837;SDS011;7510;59.296;18.106;2022-10-22T06:12:24;3.60;;;2.10;;
14837;SDS011;7510;59.296;18.106;2022-10-22T06:14:49;2.63;;;2.00;;
14837;SDS011;7510;59.296;18.106;2022-10-22T06:17:15;3.23;;;2.33;;
14837;SDS011;7510;59.296;18.106;2022-10-22T06:19:41;3.23;;;2.33;;
14837;SDS011;7510;59.296;18.106;2022-10-22T06:22:06;2.80;;;2.10;;
14837;SDS011;7510;59.296;18.106;2022-10-22T06:24:32;2.27;;;2.00;;
14837;SDS011;7510;59.296;18.106;2022-10-22T06:26:57;4.97;;;2.17;;
14837;SDS011;7510;59.296;18.106;2022-10-22T06:29:23;3.47;;;2.30;;
14837;SDS011;7510;59.296;18.106;2022-10-22T06:31:50;3.90;;;2.20;;
14837;SDS011;7510;59.296;18.106;2022-10-22T06:34:15;3.43;;;2.20;;
14837;SDS011;7510;59.296;18.106;2022-10-22T06:36:45;3.57;;;2.90;;
14837;SDS011;7510;59.296;18.106;2022-10-22T06:39:11;5.17;;;2.47;;
14837;SDS011;7510;59.296;18.106;2022-10-22T06:41:40;2.30;;;2.10;;
14837;SDS011;7510;59.296;18.106;2022-10-22T06:44:06;4.13;;;2.37;;
14837;SDS011;7510;59.296;18.106;2022-10-22T06:46:31;4.17;;;2.37;;
14837;SDS011;7510;59.296;18.106;2022-10-22T06:48:58;3.60;;;2.20;;
14837;SDS011;7510;59.296;18.106;2022-10-22T06:51:28;5.13;;;2.27;;
14837;SDS011;7510;59.296;18.106;2022-10-22T06:53:55;4.53;;;2.33;;
14837;SDS011;7510;59.296;18.106;2022-10-22T06:56:22;3.63;;;2.60;;
14837;SDS011;7510;59.296;18.106;2022-10-22T06:58:50;3.57;;;2.33;;
14837;SDS011;7510;59.296;18.106;2022-10-22T07:01:18;5.00;;;2.67;;
14837;SDS011;7510;59.296;18.106;2022-10-22T07:03:45;3.77;;;2.33;;
14837;SDS011;7510;59.296;18.106;2022-10-22T07:06:12;3.73;;;2.70;;
14837;SDS011;7510;59.296;18.106;2022-10-22T07:08:39;3.37;;;2.27;;
14837;SDS011;7510;59.296;18.106;2022-10-22T07:11:12;3.90;;;2.80;;
14837;SDS011;7510;59.296;18.106;2022-10-22T07:13:48;3.27;;;2.30;;
14837;SDS011;7510;59.296;18.106;2022-10-22T07:16:15;3.77;;;2.27;;
14837;SDS011;7510;59.296;18.106;2022-10-22T07:18:41;3.80;;;2.63;;
14837;SDS011;7510;59.296;18.106;2022-10-22T07:21:07;4.80;;;2.60;;
14837;SDS011;7510;59.296;18.106;2022-10-22T07:23:34;3.37;;;2.43;;
14837;SDS011;7510;59.296;18.106;2022-10-22T07:26:00;3.57;;;2.60;;
14837;SDS011;7510;59.296;18.106;2022-10-22T07:28:30;3.67;;;2.30;;
14837;SDS011;7510;59.296;18.106;2022-10-22T07:30:57;4.07;;;2.60;;
14837;SDS011;7510;59.296;18.106;2022-10-22T07:33:23;3.17;;;2.60;;
14837;SDS011;7510;59.296;18.106;2022-10-22T07:35:48;3.63;;;2.60;;
14837;SDS011;7510;59.296;18.106;2022-10-22T07:38:14;4.70;;;3.33;;
14837;SDS011;7510;59.296;18.106;2022-10-22T07:40:39;3.50;;;2.77;;
14837;SDS011;7510;59.296;18.106;2022-10-22T07:43:05;3.87;;;2.73;;
14837;SDS011;7510;59.296;18.106;2022-10-22T07:45:31;4.63;;;2.73;;
14837;SDS011;7510;59.296;18.106;2022-10-22T07:47:57;6.63;;;2.90;;
14837;SDS011;7510;59.296;18.106;2022-10-22T07:50:24;4.10;;;3.10;;
14837;SDS011;7510;59.296;18.106;2022-10-22T07:52:50;11.03;;;2.90;;
14837;SDS011;7510;59.296;18.106;2022-10-22T07:55:15;4.37;;;2.87;;
14837;SDS011;7510;59.296;18.106;2022-10-22T07:57:41;4.27;;;2.70;;
14837;SDS011;7510;59.296;18.106;2022-10-22T08:00:07;3.67;;;3.00;;
14837;SDS011;7510;59.296;18.106;2022-10-22T08:02:33;4.50;;;3.10;;
14837;SDS011;7510;59.296;18.106;2022-10-22T08:04:59;3.93;;;3.17;;
14837;SDS011;7510;59.296;18.106;2022-10-22T08:07:24;7.03;;;3.20;;
14837;SDS011;7510;59.296;18.106;2022-10-22T08:09:50;4.97;;;3.23;;
14837;SDS011;7510;59.296;18.106;2022-10-22T08:12:15;6.57;;;3.43;;
14837;SDS011;7510;59.296;18.106;2022-10-22T08:14:41;4.17;;;3.27;;
14837;SDS011;7510;59.296;18.106;2022-10-22T08:17:06;4.10;;;3.70;;
14837;SDS011;7510;59.296;18.106;2022-10-22T08:19:32;4.30;;;3.90;;
14837;SDS011;7510;59.296;18.106;2022-10-22T08:21:59;5.90;;;3.80;;
14837;SDS011;7510;59.296;18.106;2022-10-22T08:24:25;5.53;;;3.70;;
14837;SDS011;7510;59.296;18.106;2022-10-22T08:26:51;5.33;;;3.40;;
14837;SDS011;7510;59.296;18.106;2022-10-22T08:29:18;5.00;;;3.77;;
14837;SDS011;7510;59.296;18.106;2022-10-22T08:31:45;5.43;;;3.70;;
14837;SDS011;7510;59.296;18.106;2022-10-22T08:34:11;4.93;;;3.50;;
14837;SDS011;7510;59.296;18.106;2022-10-22T08:36:36;4.47;;;3.77;;
14837;SDS011;7510;59.296;18.106;2022-10-22T08:39:02;4.80;;;3.40;;
14837;SDS011;7510;59.296;18.106;2022-10-22T08:41:27;5.20;;;3.30;;
14837;SDS011;7510;59.296;18.106;2022-10-22T08:49:57;6.67;;;3.80;;
14837;SDS011;7510;59.296;18.106;2022-10-22T08:52:24;6.37;;;3.83;;
14837;SDS011;7510;59.296;18.106;2022-10-22T08:54:57;4.40;;;3.80;;
14837;SDS011;7510;59.296;18.106;2022-10-22T09:00:04;4.47;;;3.80;;
14837;SDS011;7510;59.296;18.106;2022-10-22T09:05:26;4.63;;;4.23;;
14837;SDS011;7510;59.296;18.106;2022-10-22T09:07:59;5.17;;;3.93;;
14837;SDS011;7510;59.296;18.106;2022-10-22T09:10:27;6.83;;;4.30;;
14837;SDS011;7510;59.296;18.106;2022-10-22T09:12:56;4.27;;;3.87;;
14837;SDS011;7510;59.296;18.106;2022-10-22T09:15:22;5.90;;;3.90;;
14837;SDS011;7510;59.296;18.106;2022-10-22T09:25:50;6.37;;;4.50;;
14837;SDS011;7510;59.296;18.106;2022-10-22T09:28:16;6.27;;;4.03;;
14837;SDS011;7510;59.296;18.106;2022-10-22T09:30:42;6.80;;;4.00;;
14837;SDS011;7510;59.296;18.106;2022-10-22T09:33:11;6.27;;;4.77;;
14837;SDS011;7510;59.296;18.106;2022-10-22T09:38:19;6.20;;;4.50;;
14837;SDS011;7510;59.296;18.106;2022-10-22T09:40:51;6.83;;;4.80;;
14837;SDS011;7510;59.296;18.106;2022-10-22T09:43:18;6.87;;;4.70;;
14837;SDS011;7510;59.296;18.106;2022-10-22T09:45:44;6.33;;;4.57;;
14837;SDS011;7510;59.296;18.106;2022-10-22T09:51:02;5.47;;;4.23;;
14837;SDS011;7510;59.296;18.106;2022-10-22T09:53:36;5.00;;;4.50;;
14837;SDS011;7510;59.296;18.106;2022-10-22T09:56:07;5.47;;;4.87;;
14837;SDS011;7510;59.296;18.106;2022-10-22T09:58:42;7.73;;;4.80;;
14837;SDS011;7510;59.296;18.106;2022-10-22T10:01:14;5.70;;;4.27;;
14837;SDS011;7510;59.296;18.106;2022-10-22T10:03:48;6.23;;;4.40;;
14837;SDS011;7510;59.296;18.106;2022-10-22T10:06:23;8.90;;;5.10;;
14837;SDS011;7510;59.296;18.106;2022-10-22T10:08:48;5.47;;;4.97;;
14837;SDS011;7510;59.296;18.106;2022-10-22T10:11:20;5.23;;;4.57;;
14837;SDS011;7510;59.296;18.106;2022-10-22T10:22:23;4.97;;;4.10;;
14837;SDS011;7510;59.296;18.106;2022-10-22T10:27:56;10.57;;;5.87;;
14837;SDS011;7510;59.296;18.106;2022-10-22T10:39:09;7.30;;;5.23;;
14837;SDS011;7510;59.296;18.106;2022-10-22T10:46:53;5.93;;;4.87;;
14837;SDS011;7510;59.296;18.106;2022-10-22T10:49:30;5.20;;;4.70;;
14837;SDS011;7510;59.296;18.106;2022-10-22T10:52:42;8.63;;;4.93;;
14837;SDS011;7510;59.296;18.106;2022-10-22T11:00:46;6.50;;;4.90;;
14837;SDS011;7510;59.296;18.106;2022-10-22T11:06:08;7.60;;;5.07;;
14837;SDS011;7510;59.296;18.106;2022-10-22T11:08:49;6.07;;;4.73;;
14837;SDS011;7510;59.296;18.106;2022-10-22T11:13:52;6.67;;;5.07;;
14837;SDS011;7510;59.296;18.106;2022-10-22T11:17:01;6.67;;;5.43;;
14837;SDS011;7510;59.296;18.106;2022-10-22T11:21:55;9.70;;;6.07;;
14837;SDS011;7510;59.296;18.106;2022-10-22T11:24:45;8.13;;;5.83;;
14837;SDS011;7510;59.296;18.106;2022-10-22T11:27:32;7.77;;;5.90;;
14837;SDS011;7510;59.296;18.106;2022-10-22T11:32:41;8.60;;;6.17;;
14837;SDS011;7510;59.296;18.106;2022-10-22T11:35:11;10.10;;;7.00;;
14837;SDS011;7510;59.296;18.106;2022-10-22T11:37:40;8.40;;;6.30;;
14837;SDS011;7510;59.296;18.106;2022-10-22T11:42:43;8.90;;;6.93;;
14837;SDS011;7510;59.296;18.106;2022-10-22T11:47:51;10.57;;;7.83;;
14837;SDS011;7510;59.296;18.106;2022-10-22T11:50:20;9.87;;;6.33;;
14837;SDS011;7510;59.296;18.106;2022-10-22T11:53:01;12.13;;;6.77;;
14837;SDS011;7510;59.296;18.106;2022-10-22T12:00:57;10.17;;;6.80;;
14837;SDS011;7510;59.296;18.106;2022-10-22T12:06:22;10.37;;;7.03;;
14837;SDS011;7510;59.296;18.106;2022-10-22T12:11:37;9.00;;;6.67;;
14837;SDS011;7510;59.296;18.106;2022-10-22T12:14:18;9.77;;;6.87;;
14837;SDS011;7510;59.296;18.106;2022-10-22T12:19:33;11.87;;;6.87;;
14837;SDS011;7510;59.296;18.106;2022-10-22T12:22:15;8.63;;;6.70;;
14837;SDS011;7510;59.296;18.106;2022-10-22T12:24:45;12.03;;;8.10;;
14837;SDS011;7510;59.296;18.106;2022-10-22T12:27:21;8.20;;;6.10;;
14837;SDS011;7510;59.296;18.106;2022-10-22T12:29:46;10.37;;;6.80;;
14837;SDS011;7510;59.296;18.106;2022-10-22T12:32:13;10.43;;;7.10;;
14837;SDS011;7510;59.296;18.106;2022-10-22T12:34:47;14.27;;;7.33;;
14837;SDS011;7510;59.296;18.106;2022-10-22T12:37:15;9.70;;;7.60;;
14837;SDS011;7510;59.296;18.106;2022-10-22T12:39:41;9.10;;;7.47;;
14837;SDS011;7510;59.296;18.106;2022-10-22T12:42:12;15.40;;;6.73;;
14837;SDS011;7510;59.296;18.106;2022-10-22T12:44:38;14.17;;;7.57;;
14837;SDS011;7510;59.296;18.106;2022-10-22T12:47:04;9.70;;;7.33;;
14837;SDS011;7510;59.296;18.106;2022-10-22T12:49:35;12.33;;;7.50;;
14837;SDS011;7510;59.296;18.106;2022-10-22T12:52:06;13.20;;;8.40;;
14837;SDS011;7510;59.296;18.106;2022-10-22T12:54:37;11.87;;;7.80;;
14837;SDS011;7510;59.296;18.106;2022-10-22T12:57:04;9.07;;;7.63;;
14837;SDS011;7510;59.296;18.106;2022-10-22T12:59:34;10.03;;;7.63;;
14837;SDS011;7510;59.296;18.106;2022-10-22T13:02:02;9.77;;;7.27;;
14837;SDS011;7510;59.296;18.106;2022-10-22T13:04:39;9.77;;;7.93;;
14837;SDS011;7510;59.296;18.106;2022-10-22T13:07:15;13.57;;;8.57;;
14837;SDS011;7510;59.296;18.106;2022-10-22T13:12:23;8.27;;;7.40;;
14837;SDS011;7510;59.296;18.106;2022-10-22T13:14:50;11.47;;;7.23;;
14837;SDS011;7510;59.296;18.106;2022-10-22T13:17:17;14.70;;;7.47;;
14837;SDS011;7510;59.296;18.106;2022-10-22T13:19:47;12.03;;;7.83;;
14837;SDS011;7510;59.296;18.106;2022-10-22T13:22:23;8.93;;;7.40;;
14837;SDS011;7510;59.296;18.106;2022-10-22T13:24:51;11.83;;;7.80;;
14837;SDS011;7510;59.296;18.106;2022-10-22T13:27:17;10.03;;;7.83;;
14837;SDS011;7510;59.296;18.106;2022-10-22T13:29:43;9.63;;;7.97;;
14837;SDS011;7510;59.296;18.106;2022-10-22T13:32:20;10.27;;;8.53;;
14837;SDS011;7510;59.296;18.106;2022-10-22T13:34:54;15.30;;;8.30;;
14837;SDS011;7510;59.296;18.106;2022-10-22T13:37:30;10.43;;;8.00;;
14837;SDS011;7510;59.296;18.106;2022-10-22T13:39:58;10.73;;;8.13;;
14837;SDS011;7510;59.296;18.106;2022-10-22T13:42:23;11.57;;;8.20;;
14837;SDS011;7510;59.296;18.106;2022-10-22T13:44:49;9.40;;;7.73;;
14837;SDS011;7510;59.296;18.106;2022-10-22T13:47:22;12.70;;;7.57;;
14837;SDS011;7510;59.296;18.106;2022-10-22T13:49:54;10.67;;;8.10;;
14837;SDS011;7510;59.296;18.106;2022-10-22T13:52:35;12.90;;;8.13;;
14837;SDS011;7510;59.296;18.106;2022-10-22T13:55:15;13.57;;;7.73;;
14837;SDS011;7510;59.296;18.106;2022-10-22T13:57:49;10.23;;;7.93;;
14837;SDS011;7510;59.296;18.106;2022-10-22T14:00:17;10.17;;;7.93;;
14837;SDS011;7510;59.296;18.106;2022-10-22T14:02:48;14.43;;;8.63;;
14837;SDS011;7510;59.296;18.106;2022-10-22T14:05:16;12.33;;;8.67;;
14837;SDS011;7510;59.296;18.106;2022-10-22T14:07:43;10.60;;;7.57;;
14837;SDS011;7510;59.296;18.106;2022-10-22T14:10:12;12.73;;;8.33;;
14837;SDS011;7510;59.296;18.106;2022-10-22T14:12:40;11.83;;;8.30;;
14837;SDS011;7510;59.296;18.106;2022-10-22T14:15:06;11.23;;;8.23;;
14837;SDS011;7510;59.296;18.106;2022-10-22T14:17:33;10.90;;;8.90;;
14837;SDS011;7510;59.296;18.106;2022-10-22T14:19:58;12.30;;;8.47;;
14837;SDS011;7510;59.296;18.106;2022-10-22T14:22:25;11.63;;;7.83;;
14837;SDS011;7510;59.296;18.106;2022-10-22T14:24:52;11.60;;;8.80;;
14837;SDS011;7510;59.296;18.106;2022-10-22T14:27:18;11.57;;;8.70;;
14837;SDS011;7510;59.296;18.106;2022-10-22T14:29:43;13.20;;;8.83;;
14837;SDS011;7510;59.296;18.106;2022-10-22T14:32:12;14.67;;;9.73;;
14837;SDS011;7510;59.296;18.106;2022-10-22T14:34:40;11.87;;;8.83;;
14837;SDS011;7510;59.296;18.106;2022-10-22T14:37:18;15.80;;;9.97;;
14837;SDS011;7510;59.296;18.106;2022-10-22T14:39:45;13.70;;;9.73;;
14837;SDS011;7510;59.296;18.106;2022-10-22T14:42:15;12.07;;;9.80;;
14837;SDS011;7510;59.296;18.106;2022-10-22T14:44:45;17.57;;;10.27;;
14837;SDS011;7510;59.296;18.106;2022-10-22T14:47:11;15.87;;;11.07;;
14837;SDS011;7510;59.296;18.106;2022-10-22T14:49:39;12.03;;;9.67;;
14837;SDS011;7510;59.296;18.106;2022-10-22T14:52:05;13.57;;;10.53;;
14837;SDS011;7510;59.296;18.106;2022-10-22T14:54:30;13.80;;;9.87;;
14837;SDS011;7510;59.296;18.106;2022-10-22T14:56:57;16.73;;;11.17;;
14837;SDS011;7510;59.296;18.106;2022-10-22T14:59:22;16.47;;;11.80;;
14837;SDS011;7510;59.296;18.106;2022-10-22T15:01:52;13.33;;;10.73;;
14837;SDS011;7510;59.296;18.106;2022-10-22T15:04:17;18.77;;;11.73;;
14837;SDS011;7510;59.296;18.106;2022-10-22T15:06:43;15.30;;;11.37;;
14837;SDS011;7510;59.296;18.106;2022-10-22T15:09:08;16.27;;;12.83;;
14837;SDS011;7510;59.296;18.106;2022-10-22T15:11:34;22.73;;;13.13;;
14837;SDS011;7510;59.296;18.106;2022-10-22T15:13:59;15.77;;;12.33;;
14837;SDS011;7510;59.296;18.106;2022-10-22T15:16:25;19.30;;;13.60;;
14837;SDS011;7510;59.296;18.106;2022-10-22T15:18:50;19.53;;;13.57;;
14837;SDS011;7510;59.296;18.106;2022-10-22T15:21:18;17.73;;;14.40;;
14837;SDS011;7510;59.296;18.106;2022-10-22T15:23:45;20.90;;;13.30;;
14837;SDS011;7510;59.296;18.106;2022-10-22T15:26:10;21.10;;;14.13;;
14837;SDS011;7510;59.296;18.106;2022-10-22T15:28:37;21.20;;;13.57;;
14837;SDS011;7510;59.296;18.106;2022-10-22T15:31:04;17.67;;;13.90;;
14837;SDS011;7510;59.296;18.106;2022-10-22T15:33:30;21.90;;;14.73;;
14837;SDS011;7510;59.296;18.106;2022-10-22T15:35:56;24.27;;;15.30;;
14837;SDS011;7510;59.296;18.106;2022-10-22T15:38:27;20.27;;;14.97;;
14837;SDS011;7510;59.296;18.106;2022-10-22T15:41:03;24.80;;;16.63;;
14837;SDS011;7510;59.296;18.106;2022-10-22T15:43:30;24.60;;;16.80;;
14837;SDS011;7510;59.296;18.106;2022-10-22T15:46:12;25.97;;;17.57;;
14837;SDS011;7510;59.296;18.106;2022-10-22T15:49:02;24.60;;;17.30;;
14837;SDS011;7510;59.296;18.106;2022-10-22T15:51:49;24.33;;;17.43;;
14837;SDS011;7510;59.296;18.106;2022-10-22T15:54:16;23.43;;;17.63;;
14837;SDS011;7510;59.296;18.106;2022-10-22T15:56:44;25.80;;;19.63;;
14837;SDS011;7510;59.296;18.106;2022-10-22T15:59:10;25.87;;;16.57;;
14837;SDS011;7510;59.296;18.106;2022-10-22T16:01:37;27.33;;;18.10;;
14837;SDS011;7510;59.296;18.106;2022-10-22T16:04:03;25.17;;;18.40;;
14837;SDS011;7510;59.296;18.106;2022-10-22T16:09:02;21.57;;;17.50;;
14837;SDS011;7510;59.296;18.106;2022-10-22T16:11:30;26.87;;;18.97;;
14837;SDS011;7510;59.296;18.106;2022-10-22T16:13:57;28.87;;;19.67;;
14837;SDS011;7510;59.296;18.106;2022-10-22T16:16:25;26.03;;;18.50;;
14837;SDS011;7510;59.296;18.106;2022-10-22T16:18:52;27.03;;;19.27;;
14837;SDS011;7510;59.296;18.106;2022-10-22T16:21:18;26.73;;;19.40;;
14837;SDS011;7510;59.296;18.106;2022-10-22T16:23:45;25.90;;;18.83;;
14837;SDS011;7510;59.296;18.106;2022-10-22T16:26:11;24.53;;;18.97;;
14837;SDS011;7510;59.296;18.106;2022-10-22T16:28:37;27.93;;;18.90;;
14837;SDS011;7510;59.296;18.106;2022-10-22T16:31:04;34.27;;;20.83;;
14837;SDS011;7510;59.296;18.106;2022-10-22T16:33:31;31.20;;;20.47;;
14837;SDS011;7510;59.296;18.106;2022-10-22T16:35:57;30.07;;;21.17;;
14837;SDS011;7510;59.296;18.106;2022-10-22T16:38:24;33.23;;;20.93;;
14837;SDS011;7510;59.296;18.106;2022-10-22T16:40:49;25.97;;;19.60;;
14837;SDS011;7510;59.296;18.106;2022-10-22T16:43:15;31.33;;;20.93;;
14837;SDS011;7510;59.296;18.106;2022-10-22T16:45:49;29.37;;;21.00;;
14837;SDS011;7510;59.296;18.106;2022-10-22T16:48:16;27.60;;;20.63;;
14837;SDS011;7510;59.296;18.106;2022-10-22T16:50:42;31.80;;;20.07;;
14837;SDS011;7510;59.296;18.106;2022-10-22T16:53:09;29.90;;;20.37;;
14837;SDS011;7510;59.296;18.106;2022-10-22T16:55:35;30.30;;;20.53;;
14837;SDS011;7510;59.296;18.106;2022-10-22T16:58:01;31.77;;;21.07;;
14837;SDS011;7510;59.296;18.106;2022-10-22T17:00:27;33.67;;;21.07;;